Time;durP1;ratioP1;P1;durP2;ratioP2;P2;SDS_P1;SDS_P2;PMS_P1;PMS_P2;Temp;Humidity;BMP_temperature;BMP_pressure;BME280_temperature;BME280_humidity;BME280_pressure;Samples;Min_cycle;Max_cycle;Signal;HPM_P1;HPM_P2
2021/05/02 00:05:30;;;;;;;37.73;29.10;;;;;;;7.63;77.56;98868.88;513134;1104;115155;-65
2021/05/02 00:15:35;;;;;;;40.17;32.47;;;;;;;7.63;77.76;98890.63;512036;1104;116515;-64
2021/05/02 00:25:40;;;;;;;39.73;32.73;;;;;;;7.63;77.99;98866.26;513144;1099;115293;-64
2021/05/02 00:35:48;;;;;;;40.13;32.00;;;;;;;7.62;78.02;98838.45;512643;1100;116303;-65
2021/05/02 00:45:58;;;;;;;39.77;30.80;;;;;;;7.54;78.14;98818.88;512642;1099;115835;-64
2021/05/02 00:56:13;;;;;;;43.83;32.63;;;;;;;7.47;78.28;98788.02;512807;1104;115883;-64
2021/05/02 01:06:23;;;;;;;43.63;33.73;;;;;;;7.33;78.53;98768.00;513058;1104;115664;-64
2021/05/02 01:16:35;;;;;;;42.07;32.67;;;;;;;7.34;78.62;98754.03;512002;1100;117489;-65
2021/05/02 01:26:41;;;;;;;39.63;32.13;;;;;;;7.32;78.99;98769.79;512905;1100;117149;-64
2021/05/02 01:36:47;;;;;;;36.97;30.40;;;;;;;7.35;78.97;98719.96;512135;1104;117953;-64
2021/05/02 01:46:53;;;;;;;38.57;30.73;;;;;;;7.30;78.78;98682.88;512846;1104;115821;-63
2021/05/02 01:56:58;;;;;;;36.60;28.13;;;;;;;7.20;79.06;98663.52;513824;1100;115914;-65
2021/05/02 02:07:03;;;;;;;35.73;28.60;;;;;;;7.13;79.47;98637.80;511939;1104;116016;-63
2021/05/02 02:17:10;;;;;;;35.53;28.10;;;;;;;7.08;79.33;98623.38;512860;1100;115792;-63
2021/05/02 02:27:16;;;;;;;35.93;29.57;;;;;;;6.97;79.76;98596.19;512783;1104;116090;-64
2021/05/02 02:37:24;;;;;;;36.77;29.73;;;;;;;6.93;79.85;98601.73;512430;1104;115949;-64
2021/05/02 02:47:36;;;;;;;38.20;29.87;;;;;;;6.94;79.97;98565.08;513610;1104;115844;-63
2021/05/02 02:57:46;;;;;;;38.30;31.20;;;;;;;6.96;80.11;98562.38;512053;1104;115837;-65
2021/05/02 03:07:52;;;;;;;30.13;26.87;;;;;;;6.97;79.76;98549.21;514614;1104;116095;-63
2021/05/02 03:18:04;;;;;;;36.87;28.63;;;;;;;6.98;80.13;98545.69;513397;1100;115313;-63
2021/05/02 03:28:11;;;;;;;31.73;25.25;;;;;;;6.98;79.51;98506.55;511767;1104;116478;-64
2021/05/02 03:38:24;;;;;;;26.23;23.25;;;;;;;6.89;79.94;98482.81;512378;1104;116283;-64
2021/05/02 03:48:28;;;;;;;27.67;24.70;;;;;;;6.91;79.75;98489.61;513479;1104;115943;-63
2021/05/02 03:58:34;;;;;;;26.47;22.30;;;;;;;6.92;79.94;98461.72;512695;1099;116203;-64
2021/05/02 04:08:38;;;;;;;26.47;22.13;;;;;;;6.91;79.69;98437.41;513123;1099;116529;-63
2021/05/02 04:18:43;;;;;;;25.53;22.13;;;;;;;6.95;79.93;98417.17;511320;1104;116858;-66
2021/05/02 04:28:48;;;;;;;29.67;24.47;;;;;;;6.95;79.75;98423.21;512814;1098;115422;-64
2021/05/02 04:38:53;;;;;;;27.27;24.17;;;;;;;6.96;79.68;98411.83;512505;1104;115988;-63
2021/05/02 04:48:57;;;;;;;25.05;22.08;;;;;;;6.98;79.93;98376.05;512258;1104;115348;-64
2021/05/02 04:59:02;;;;;;;24.80;21.00;;;;;;;7.07;79.94;98377.18;512176;1100;116010;-63
2021/05/02 05:09:07;;;;;;;24.73;22.03;;;;;;;7.11;80.14;98323.81;512829;1099;175988;-64
2021/05/02 05:19:12;;;;;;;22.40;19.97;;;;;;;7.19;79.66;98294.55;513065;1104;116143;-61
2021/05/02 05:29:16;;;;;;;21.90;19.60;;;;;;;7.18;80.41;98279.02;512724;1104;115482;-63
2021/05/02 05:39:23;;;;;;;21.70;19.35;;;;;;;7.20;80.65;98264.06;513828;1104;115558;-62
2021/05/02 05:49:27;;;;;;;20.60;18.40;;;;;;;7.26;81.17;98247.94;512640;1099;116473;-66
2021/05/02 05:59:32;;;;;;;20.63;18.43;;;;;;;7.25;80.93;98220.17;513076;1104;115825;-64
2021/05/02 06:09:37;;;;;;;21.17;16.97;;;;;;;7.19;81.55;98187.51;513680;1104;116959;-66
2021/05/02 06:19:41;;;;;;;18.50;15.65;;;;;;;7.17;81.70;98152.04;512623;1100;115986;-65
2021/05/02 06:29:47;;;;;;;19.93;17.00;;;;;;;7.04;81.81;98136.43;513070;1104;116106;-66
2021/05/02 06:39:51;;;;;;;21.97;18.30;;;;;;;6.99;82.63;98208.08;512681;1104;116272;-65
2021/05/02 06:49:56;;;;;;;20.75;18.20;;;;;;;6.99;83.13;98171.53;513161;1104;116408;-67
2021/05/02 07:00:01;;;;;;;18.77;16.87;;;;;;;6.90;83.58;98104.34;513037;1104;116022;-66
2021/05/02 07:10:08;;;;;;;16.83;15.10;;;;;;;6.93;83.94;98139.83;513148;1100;117056;-66
2021/05/02 07:20:16;;;;;;;16.40;14.70;;;;;;;6.90;84.18;98129.59;513136;1100;116078;-66
2021/05/02 07:30:22;;;;;;;15.53;13.93;;;;;;;6.99;85.82;98149.81;513397;1104;115949;-65
2021/05/02 07:40:28;;;;;;;17.28;14.95;;;;;;;7.07;86.27;98048.30;513183;1104;115891;-66
2021/05/02 07:50:32;;;;;;;14.70;13.03;;;;;;;7.02;86.57;98024.30;513208;1104;117610;-67
2021/05/02 08:00:37;;;;;;;12.37;11.07;;;;;;;7.11;86.91;98005.35;512329;1104;117126;-66
2021/05/02 08:10:41;;;;;;;11.23;10.10;;;;;;;7.13;86.80;98000.03;514235;1104;116980;-66
2021/05/02 08:20:46;;;;;;;10.90;9.87;;;;;;;7.23;87.07;97969.67;512924;1104;116171;-66
2021/05/02 08:30:51;;;;;;;13.13;11.77;;;;;;;7.35;88.04;97926.11;511846;1104;116385;-66
2021/05/02 08:40:57;;;;;;;10.47;9.57;;;;;;;7.57;88.05;97914.83;512309;1104;116204;-65
2021/05/02 08:51:01;;;;;;;11.57;10.47;;;;;;;7.71;87.40;97884.16;512019;1104;115808;-67
2021/05/02 09:01:06;;;;;;;12.10;10.90;;;;;;;7.95;86.60;97841.34;511574;1100;116588;-65
2021/05/02 09:11:12;;;;;;;11.10;9.90;;;;;;;8.16;85.72;97822.23;495349;1104;20002331;-63
2021/05/02 09:21:26;;;;;;;11.77;10.57;;;;;;;8.30;85.24;97805.38;512556;1104;117051;-63
2021/05/02 09:31:33;;;;;;;11.07;9.93;;;;;;;8.24;84.78;97791.03;512180;1104;116652;-63
2021/05/02 09:41:40;;;;;;;10.17;9.07;;;;;;;8.26;84.64;97783.92;512244;1104;115772;-64
2021/05/02 09:51:52;;;;;;;12.45;11.25;;;;;;;8.16;85.30;97728.13;512177;1099;116317;-64
2021/05/02 10:02:16;;;;;;;12.23;10.33;;;;;;;7.88;86.10;97702.50;512558;1104;116210;-64
2021/05/02 10:12:22;;;;;;;10.83;9.70;;;;;;;7.77;86.69;97694.73;512356;1104;116045;-64
2021/05/02 10:22:27;;;;;;;10.60;9.50;;;;;;;7.88;86.49;97727.80;512051;1104;116631;-64
2021/05/02 10:32:35;;;;;;;12.85;10.35;;;;;;;7.89;87.10;97730.29;513051;1100;115981;-63
2021/05/02 10:42:46;;;;;;;11.33;10.23;;;;;;;7.98;86.74;97711.23;512282;1104;117311;-62
2021/05/02 10:53:02;;;;;;;12.47;11.10;;;;;;;8.18;86.97;97708.72;512681;1104;117498;-62
2021/05/02 11:03:07;;;;;;;16.80;13.60;;;;;;;8.52;86.75;97698.02;512670;1100;116098;-62
2021/05/02 11:13:26;;;;;;;15.43;13.40;;;;;;;9.01;86.27;97691.28;512167;1104;115687;-63
2021/05/02 11:23:58;;;;;;;13.27;12.03;;;;;;;9.26;86.06;97668.98;513329;1104;117193;-64
2021/05/02 11:34:07;;;;;;;13.20;11.80;;;;;;;9.47;85.61;97660.17;512556;1104;116156;-63
2021/05/02 11:44:13;;;;;;;12.20;11.05;;;;;;;9.78;85.56;97654.73;525714;1099;116274;-63
2021/05/02 11:54:17;;;;;;;14.25;12.90;;;;;;;9.92;85.25;97666.58;513869;1100;115758;-64
2021/05/02 12:04:22;;;;;;;14.40;12.90;;;;;;;9.92;85.30;97663.95;512743;1104;115788;-63
2021/05/02 12:14:29;;;;;;;9.37;8.47;;;;;;;9.88;84.83;97666.02;514241;1104;116651;-63
2021/05/02 12:24:34;;;;;;;8.40;7.53;;;;;;;9.80;84.35;97674.59;513394;1104;115698;-66
2021/05/02 12:34:42;;;;;;;8.30;7.07;;;;;;;10.08;84.29;97677.28;513483;1098;176232;-64
2021/05/02 12:44:53;;;;;;;8.05;7.25;;;;;;;10.14;83.17;97688.19;513653;1104;116936;-63
2021/05/02 12:55:17;;;;;;;8.28;7.20;;;;;;;9.94;82.55;97693.47;512356;1104;116450;-64
2021/05/02 13:05:24;;;;;;;3.90;3.60;;;;;;;9.75;82.60;97710.87;513481;1104;116003;-65
2021/05/02 13:15:32;;;;;;;5.03;3.73;;;;;;;9.53;82.92;97730.34;513054;1104;114993;-63
2021/05/02 13:25:37;;;;;;;3.70;3.40;;;;;;;9.19;82.95;97762.98;513085;1104;115391;-65
2021/05/02 13:35:43;;;;;;;4.40;3.70;;;;;;;8.57;82.21;97799.66;513758;1100;115273;-63
2021/05/02 13:45:47;;;;;;;3.83;3.43;;;;;;;8.02;82.57;97839.05;512461;1104;115633;-63
2021/05/02 13:55:54;;;;;;;3.67;3.37;;;;;;;7.66;82.93;97875.84;514711;1104;115815;-65
2021/05/02 14:05:59;;;;;;;4.50;3.47;;;;;;;7.30;83.22;97907.37;504911;1100;10112325;-64
2021/05/02 14:16:24;;;;;;;5.10;3.97;;;;;;;7.20;83.24;97929.91;512245;1100;115684;-63
2021/05/02 14:26:28;;;;;;;3.33;3.00;;;;;;;7.14;83.57;97962.53;512702;1104;115872;-63
2021/05/02 14:36:33;;;;;;;1.93;1.43;;;;;;;6.99;83.76;98004.52;512924;1104;115443;-62
2021/05/02 14:46:37;;;;;;;2.70;2.30;;;;;;;6.83;83.31;98032.67;512506;1104;115793;-63
2021/05/02 14:56:42;;;;;;;1.20;1.10;;;;;;;6.72;83.54;98075.21;512815;1104;115727;-63
2021/05/02 15:06:49;;;;;;;2.33;1.83;;;;;;;6.41;82.86;98109.55;511658;1104;115650;-62
2021/05/02 15:16:53;;;;;;;1.33;1.20;;;;;;;6.09;82.74;98149.11;512407;1099;115567;-64
2021/05/02 15:27:00;;;;;;;1.25;1.00;;;;;;;5.89;82.84;98190.34;514376;1104;115448;-63
2021/05/02 15:37:15;;;;;;;2.07;1.67;;;;;;;5.63;82.75;98220.72;511688;1104;115519;-64
2021/05/02 15:47:19;;;;;;;2.10;1.17;;;;;;;5.25;82.01;98237.91;512914;1100;115650;-63
2021/05/02 15:57:25;;;;;;;1.63;1.00;;;;;;;4.92;82.28;98275.53;513076;1104;115366;-62
2021/05/02 16:07:30;;;;;;;0.97;0.83;;;;;;;4.73;83.32;98299.20;512267;1104;116122;-66
2021/05/02 16:17:35;;;;;;;1.30;1.20;;;;;;;4.47;82.52;98310.27;512971;1104;115181;-63
2021/05/02 16:27:39;;;;;;;2.20;1.37;;;;;;;4.34;82.86;98319.72;512399;1104;116253;-63
2021/05/02 16:37:44;;;;;;;3.25;1.40;;;;;;;4.26;83.40;98353.92;513564;1104;116253;-62
2021/05/02 16:47:49;;;;;;;1.43;1.33;;;;;;;4.05;83.46;98389.77;513100;1099;115516;-62
2021/05/02 16:57:54;;;;;;;2.23;1.33;;;;;;;3.88;83.58;98409.75;512275;1099;115399;-63
2021/05/02 17:07:58;;;;;;;3.20;1.87;;;;;;;3.72;83.79;98427.94;519493;1104;115684;-63
2021/05/02 17:18:04;;;;;;;1.07;0.90;;;;;;;3.48;83.68;98445.66;512381;1104;116202;-62
2021/05/02 17:28:08;;;;;;;1.13;0.70;;;;;;;3.34;83.79;98482.70;516085;1104;115338;-63
2021/05/02 17:38:13;;;;;;;1.00;0.90;;;;;;;3.14;83.39;98515.73;515086;1104;115638;-62
2021/05/02 17:48:21;;;;;;;1.10;0.97;;;;;;;2.96;83.42;98553.80;513379;1099;115537;-63
2021/05/02 17:58:26;;;;;;;1.20;1.10;;;;;;;2.85;83.83;98595.80;511690;1099;115340;-63
2021/05/02 18:08:31;;;;;;;1.33;1.10;;;;;;;2.73;83.39;98630.95;515426;1104;115425;-64
2021/05/02 18:18:35;;;;;;;1.33;0.80;;;;;;;2.55;83.55;98673.27;516256;1100;115507;-64
2021/05/02 18:28:40;;;;;;;1.50;1.40;;;;;;;2.47;83.44;98689.16;516566;1104;116156;-67
2021/05/02 18:38:45;;;;;;;1.50;1.37;;;;;;;2.50;83.38;98715.78;513520;1104;115361;-63
2021/05/02 18:48:50;;;;;;;3.80;1.53;;;;;;;2.46;83.69;98747.91;513436;1100;115374;-64
2021/05/02 18:58:55;;;;;;;2.20;1.20;;;;;;;2.41;83.91;98756.80;514123;1104;116211;-65
2021/05/02 19:09:00;;;;;;;1.80;1.30;;;;;;;2.35;84.69;98765.67;512136;1104;115863;-64
2021/05/02 19:19:05;;;;;;;1.53;1.40;;;;;;;2.31;84.20;98762.41;517863;1104;115681;-64
2021/05/02 19:29:10;;;;;;;1.48;1.20;;;;;;;2.35;84.43;98774.30;518565;1104;115909;-65
2021/05/02 19:39:15;;;;;;;3.03;2.07;;;;;;;2.30;85.05;98786.60;514894;1100;115414;-64
2021/05/02 19:49:19;;;;;;;2.58;1.35;;;;;;;2.32;84.94;98813.31;517242;1104;115912;-64
2021/05/02 19:59:24;;;;;;;3.60;2.00;;;;;;;2.43;85.31;98827.56;515499;1099;115310;-63
2021/05/02 20:09:29;;;;;;;2.37;2.13;;;;;;;2.52;84.98;98833.17;515626;1104;115961;-64
2021/05/02 20:19:36;;;;;;;5.85;4.90;;;;;;;2.60;85.02;98850.98;513713;1104;115463;-63
2021/05/02 20:29:42;;;;;;;3.10;2.20;;;;;;;2.69;85.06;98861.88;516216;1100;115580;-64
2021/05/02 20:40:00;;;;;;;2.40;2.20;;;;;;;2.79;84.81;98874.36;514689;1104;116176;-63
2021/05/02 20:50:06;;;;;;;2.37;2.07;;;;;;;2.92;84.77;98899.75;524278;1104;115724;-65
2021/05/02 21:00:14;;;;;;;3.67;3.03;;;;;;;3.01;84.54;98912.32;517829;1100;115645;-63
2021/05/02 21:10:18;;;;;;;3.83;2.88;;;;;;;3.07;84.49;98925.04;511591;1104;116040;-63
2021/05/02 21:20:23;;;;;;;3.83;2.90;;;;;;;3.01;84.49;98932.25;513468;1104;115515;-63
2021/05/02 21:30:29;;;;;;;3.60;3.30;;;;;;;3.09;83.97;98940.52;511813;1104;115851;-63
2021/05/02 21:40:33;;;;;;;4.67;3.40;;;;;;;3.11;83.94;98950.84;526928;1104;115397;-63
2021/05/02 21:50:37;;;;;;;4.23;3.30;;;;;;;3.14;84.28;98964.52;520791;1104;116100;-61
2021/05/02 22:00:53;;;;;;;5.00;3.77;;;;;;;3.15;83.90;98973.98;518241;1104;115548;-62
2021/05/02 22:11:00;;;;;;;4.97;4.43;;;;;;;3.13;83.67;98980.14;512364;1099;115213;-63
2021/05/02 22:21:08;;;;;;;4.10;3.53;;;;;;;3.18;84.11;99001.56;528934;1104;115439;-61
2021/05/02 22:31:13;;;;;;;5.35;3.85;;;;;;;3.21;83.65;99012.63;528368;1104;116182;-62
2021/05/02 22:41:18;;;;;;;3.93;3.63;;;;;;;3.24;83.59;99018.61;522185;1104;114978;-61
2021/05/02 22:51:22;;;;;;;4.27;3.27;;;;;;;3.23;83.80;99035.92;511911;1104;115447;-62
2021/05/02 23:02:05;;;;;;;3.43;3.13;;;;;;;3.26;83.12;99040.97;514899;1100;117946;-63
2021/05/02 23:12:11;;;;;;;3.10;2.80;;;;;;;3.28;83.54;99035.72;511727;1100;115576;-62
2021/05/02 23:22:16;;;;;;;3.90;3.30;;;;;;;3.24;82.98;99023.80;519461;1104;114751;-63
2021/05/02 23:32:21;;;;;;;5.23;3.30;;;;;;;3.27;83.14;99027.09;513723;1100;114922;-63
2021/05/02 23:42:26;;;;;;;4.07;3.20;;;;;;;3.30;83.38;99028.72;511997;1100;115111;-63
2021/05/02 23:52:30;;;;;;;4.07;3.77;;;;;;;3.27;83.23;99029.67;512766;1104;115884;-62
